createdAt,value
2023-05-02T00:00:05.180Z,6.30
2023-05-02T00:01:05.198Z,7.10
2023-05-02T00:02:05.318Z,6.20
2023-05-02T00:03:05.274Z,6.70
2023-05-02T00:04:05.374Z,6.40
2023-05-02T00:05:05.240Z,6.50
2023-05-02T00:06:05.284Z,6.10
2023-05-02T00:07:05.377Z,6.50
2023-05-02T00:08:05.287Z,6.40
2023-05-02T00:09:05.303Z,6.50
2023-05-02T00:10:05.853Z,6.30
2023-05-02T00:11:05.343Z,6.10
2023-05-02T00:12:05.349Z,6.20
2023-05-02T00:13:05.465Z,6.70
2023-05-02T00:14:05.386Z,6.30
2023-05-02T00:15:05.394Z,6.10
2023-05-02T00:16:05.434Z,6.00
2023-05-02T00:17:05.465Z,6.30
2023-05-02T00:18:05.470Z,6.20
2023-05-02T00:19:05.551Z,6.00
2023-05-02T00:20:05.479Z,6.20
2023-05-02T00:21:05.494Z,6.20
2023-05-02T00:22:05.521Z,6.50
2023-05-02T00:23:05.524Z,5.90
2023-05-02T00:24:05.549Z,6.00
2023-05-02T00:25:05.659Z,6.20
2023-05-02T00:26:05.571Z,5.90
2023-05-02T00:27:05.583Z,6.40
2023-05-02T00:28:05.593Z,5.80
2023-05-02T00:29:05.609Z,7.20
2023-05-02T00:30:05.731Z,5.90
2023-05-02T00:31:05.683Z,6.20
2023-05-02T00:32:05.676Z,6.10
2023-05-02T00:33:05.678Z,5.50
2023-05-02T00:34:05.684Z,5.90
2023-05-02T00:35:05.691Z,6.10
2023-05-02T00:36:05.812Z,5.80
2023-05-02T00:37:05.729Z,5.80
2023-05-02T00:38:05.743Z,5.50
2023-05-02T00:39:05.771Z,6.00
2023-05-02T00:40:05.772Z,5.50
2023-05-02T00:41:05.889Z,5.60
2023-05-02T00:42:05.805Z,5.90
2023-05-02T00:43:05.833Z,5.90
2023-05-02T00:44:05.839Z,6.20
2023-05-02T00:45:05.850Z,5.90
2023-05-02T00:46:05.912Z,5.70
2023-05-02T00:47:05.990Z,5.40
2023-05-02T00:48:05.959Z,5.90
2023-05-02T00:49:05.903Z,6.00
2023-05-02T00:50:05.940Z,5.60
2023-05-02T00:51:05.943Z,6.00
2023-05-02T00:52:05.971Z,5.60
2023-05-02T00:53:06.071Z,6.00
2023-05-02T00:54:05.985Z,5.50
2023-05-02T00:55:06.006Z,5.80
2023-05-02T00:56:06.027Z,5.90
2023-05-02T00:57:06.052Z,5.50
2023-05-02T00:58:06.040Z,6.10
2023-05-02T00:59:06.169Z,5.80
2023-05-02T01:00:06.294Z,5.70
2023-05-02T01:01:06.096Z,5.70
2023-05-02T01:02:06.243Z,5.60
2023-05-02T01:03:06.196Z,5.80
2023-05-02T01:04:06.352Z,5.50
2023-05-02T01:05:06.156Z,5.80
2023-05-02T01:06:06.252Z,5.50
2023-05-02T01:07:06.183Z,5.60
2023-05-02T01:08:06.195Z,5.40
2023-05-02T01:09:06.227Z,5.70
2023-05-02T01:10:06.329Z,5.40
2023-05-02T01:11:06.239Z,5.80
2023-05-02T01:12:06.294Z,5.80
2023-05-02T01:13:06.275Z,5.50
2023-05-02T01:14:06.286Z,5.80
2023-05-02T01:15:06.322Z,5.20
2023-05-02T01:16:06.506Z,5.30
2023-05-02T01:17:06.344Z,5.80
2023-05-02T01:18:06.401Z,5.40
2023-05-02T01:19:06.372Z,5.40
2023-05-02T01:20:06.405Z,5.30
2023-05-02T01:21:06.503Z,5.20
2023-05-02T01:22:06.420Z,5.30
2023-05-02T01:23:06.415Z,5.60
2023-05-02T01:24:06.450Z,5.20
2023-05-02T01:25:06.459Z,5.10
2023-05-02T01:26:06.474Z,5.10
2023-05-02T01:27:06.587Z,5.20
2023-05-02T01:28:06.488Z,5.50
2023-05-02T01:29:06.511Z,5.10
2023-05-02T01:30:06.546Z,5.20
2023-05-02T01:31:06.573Z,5.20
2023-05-02T01:32:06.880Z,5.40
2023-05-02T01:33:06.604Z,5.30
2023-05-02T01:34:06.595Z,5.30
2023-05-02T01:35:06.616Z,5.90
2023-05-02T01:36:06.642Z,5.60
2023-05-02T01:37:06.732Z,4.80
2023-05-02T01:38:06.650Z,5.40
2023-05-02T01:39:06.658Z,5.90
2023-05-02T01:40:06.674Z,5.40
2023-05-02T01:41:06.705Z,5.10
2023-05-02T01:42:06.809Z,5.40
2023-05-02T01:43:06.728Z,5.30
2023-05-02T01:44:06.742Z,5.40
2023-05-02T01:45:06.765Z,5.20
2023-05-02T01:46:06.785Z,5.10
2023-05-02T01:47:06.962Z,4.90
2023-05-02T01:48:06.987Z,4.90
2023-05-02T01:49:06.821Z,5.10
2023-05-02T01:50:06.844Z,5.10
2023-05-02T01:51:06.850Z,5.40
2023-05-02T01:52:06.879Z,5.40
2023-05-02T01:53:06.916Z,5.00
2023-05-02T01:54:06.988Z,5.20
2023-05-02T01:55:06.908Z,5.30
2023-05-02T01:56:06.927Z,5.20
2023-05-02T01:57:06.929Z,4.90
2023-05-02T01:58:06.966Z,5.50
2023-05-02T01:59:06.971Z,5.40
2023-05-02T02:00:07.093Z,5.30
2023-05-02T02:01:07.035Z,5.30
2023-05-02T02:02:07.021Z,5.50
2023-05-02T02:03:07.063Z,5.50
2023-05-02T02:04:07.070Z,4.90
2023-05-02T02:05:07.064Z,5.50
2023-05-02T02:06:07.204Z,5.40
2023-05-02T02:07:07.103Z,5.10
2023-05-02T02:08:07.119Z,5.00
2023-05-02T02:09:07.140Z,5.00
2023-05-02T02:10:07.155Z,5.20
2023-05-02T02:11:07.257Z,5.20
2023-05-02T02:12:07.167Z,4.90
2023-05-02T02:13:07.174Z,5.10
2023-05-02T02:14:07.206Z,5.10
2023-05-02T02:15:07.204Z,4.60
2023-05-02T02:16:07.331Z,4.40
2023-05-02T02:17:07.405Z,4.80
2023-05-02T02:18:07.318Z,4.90
2023-05-02T02:19:07.273Z,5.10
2023-05-02T02:20:07.291Z,4.70
2023-05-02T02:21:07.301Z,5.00
2023-05-02T02:22:07.318Z,4.90
2023-05-02T02:23:07.424Z,5.00
2023-05-02T02:24:07.372Z,4.60
2023-05-02T02:25:07.360Z,5.00
2023-05-02T02:26:07.385Z,4.60
2023-05-02T02:27:07.405Z,4.90
2023-05-02T02:28:07.410Z,5.00
2023-05-02T02:29:07.534Z,4.90
2023-05-02T02:30:07.501Z,4.90
2023-05-02T02:31:07.504Z,4.70
2023-05-02T02:32:07.465Z,4.80
2023-05-02T02:33:07.579Z,4.50
2023-05-02T02:34:07.622Z,4.80
2023-05-02T02:35:07.577Z,5.00
2023-05-02T02:36:07.520Z,4.80
2023-05-02T02:37:07.544Z,4.60
2023-05-02T02:38:07.556Z,4.50
2023-05-02T02:39:07.571Z,4.70
2023-05-02T02:40:07.709Z,5.00
2023-05-02T02:41:07.607Z,5.40
2023-05-02T02:42:07.619Z,4.60
2023-05-02T02:43:07.642Z,4.70
2023-05-02T02:44:07.653Z,4.70
2023-05-02T02:45:07.759Z,5.00
2023-05-02T02:46:07.799Z,4.60
2023-05-02T02:47:07.699Z,4.40
2023-05-02T02:48:07.802Z,4.50
2023-05-02T02:49:07.723Z,4.90
2023-05-02T02:50:07.829Z,4.70
2023-05-02T02:51:07.759Z,4.90
2023-05-02T02:52:07.770Z,4.70
2023-05-02T02:53:07.775Z,4.40
2023-05-02T02:54:19.008Z,4.90
2023-05-02T02:55:07.809Z,4.50
2023-05-02T02:56:07.938Z,4.60
2023-05-02T02:57:07.842Z,4.60
2023-05-02T02:58:07.860Z,4.70
2023-05-02T02:59:07.859Z,4.50
2023-05-02T03:00:07.886Z,4.80
2023-05-02T03:01:07.919Z,4.90
2023-05-02T03:02:08.116Z,4.80
2023-05-02T03:03:08.001Z,4.70
2023-05-02T03:04:08.049Z,4.50
2023-05-02T03:05:07.957Z,4.20
2023-05-02T03:06:07.990Z,4.40
2023-05-02T03:07:08.081Z,4.20
2023-05-02T03:08:07.999Z,4.60
2023-05-02T03:09:08.020Z,4.60
2023-05-02T03:10:08.026Z,4.60
2023-05-02T03:11:08.043Z,4.40
2023-05-02T03:12:08.103Z,4.30
2023-05-02T03:13:08.170Z,4.90
2023-05-02T03:14:08.109Z,4.20
2023-05-02T03:15:08.136Z,4.30
2023-05-02T03:16:08.151Z,4.50
2023-05-02T03:17:08.139Z,5.70
2023-05-02T03:18:08.320Z,4.20
2023-05-02T03:19:08.191Z,5.40
2023-05-02T03:20:08.190Z,6.00
2023-05-02T03:21:08.204Z,4.70
2023-05-02T03:22:08.206Z,5.20
2023-05-02T03:23:08.231Z,5.00
2023-05-02T03:24:08.353Z,4.50
2023-05-02T03:25:08.268Z,4.70
2023-05-02T03:26:08.265Z,4.30
2023-05-02T03:27:08.282Z,4.90
2023-05-02T03:28:08.316Z,5.30
2023-05-02T03:29:08.416Z,6.90
2023-05-02T03:30:08.350Z,5.00
2023-05-02T03:31:08.451Z,4.90
2023-05-02T03:32:08.411Z,4.40
2023-05-02T03:33:08.409Z,4.70
2023-05-02T03:34:08.394Z,4.90
2023-05-02T03:35:08.524Z,4.90
2023-05-02T03:36:08.420Z,5.00
2023-05-02T03:37:08.440Z,6.60
2023-05-02T03:38:08.447Z,5.70
2023-05-02T03:39:08.460Z,5.10
2023-05-02T03:40:08.483Z,5.80
2023-05-02T03:41:08.603Z,4.60
2023-05-02T03:42:08.521Z,4.50
2023-05-02T03:43:08.530Z,5.60
2023-05-02T03:44:08.567Z,4.90
2023-05-02T03:45:08.559Z,4.90
2023-05-02T03:46:08.674Z,5.50
2023-05-02T03:47:08.617Z,4.50
2023-05-02T03:48:08.656Z,4.60
2023-05-02T03:49:08.624Z,4.20
2023-05-02T03:50:08.626Z,5.30
2023-05-02T03:51:08.638Z,4.50
2023-05-02T03:52:08.769Z,4.30
2023-05-02T03:53:08.691Z,4.40
2023-05-02T03:54:08.696Z,4.90
2023-05-02T03:55:08.720Z,4.60
2023-05-02T03:56:08.745Z,4.90
2023-05-02T03:57:08.737Z,4.90
2023-05-02T03:58:08.852Z,5.30
2023-05-02T03:59:08.775Z,4.70
2023-05-02T04:00:08.797Z,4.30
2023-05-02T04:01:08.796Z,4.70
2023-05-02T04:02:08.945Z,4.40
2023-05-02T04:03:08.982Z,5.80
2023-05-02T04:04:08.978Z,4.90
2023-05-02T04:05:08.852Z,4.40
2023-05-02T04:06:08.911Z,4.60
2023-05-02T04:07:08.889Z,4.60
2023-05-02T04:08:08.897Z,4.60
2023-05-02T04:09:08.911Z,4.40
2023-05-02T04:10:09.047Z,4.40
2023-05-02T04:11:08.950Z,3.80
2023-05-02T04:12:08.956Z,4.30
2023-05-02T04:13:08.992Z,5.30
2023-05-02T04:14:08.988Z,5.10
2023-05-02T04:15:09.114Z,6.10
2023-05-02T04:16:09.068Z,4.90
2023-05-02T04:17:09.128Z,4.40
2023-05-02T04:18:09.093Z,4.40
2023-05-02T04:19:09.067Z,4.60
2023-05-02T04:20:09.224Z,4.60
2023-05-02T04:21:09.218Z,5.20
2023-05-02T04:22:09.113Z,5.60
2023-05-02T04:23:09.128Z,4.70
2023-05-02T04:24:09.149Z,4.20
2023-05-02T04:25:09.158Z,5.10
2023-05-02T04:26:09.281Z,4.70
2023-05-02T04:27:09.179Z,4.60
2023-05-02T04:28:09.195Z,4.00
2023-05-02T04:29:09.208Z,5.10
2023-05-02T04:30:09.225Z,3.90
2023-05-02T04:31:09.393Z,4.10
2023-05-02T04:32:09.271Z,4.70
2023-05-02T04:33:09.317Z,4.30
2023-05-02T04:34:09.288Z,5.50
2023-05-02T04:35:09.300Z,4.30
2023-05-02T04:36:09.429Z,4.90
2023-05-02T04:37:09.328Z,5.90
2023-05-02T04:38:09.361Z,4.00
2023-05-02T04:39:09.361Z,4.90
2023-05-02T04:40:09.380Z,4.00
2023-05-02T04:41:09.863Z,4.10
2023-05-02T04:42:09.404Z,5.10
2023-05-02T04:43:09.425Z,5.20
2023-05-02T04:44:09.436Z,5.50
2023-05-02T04:45:09.458Z,4.20
2023-05-02T04:46:09.488Z,5.50
2023-05-02T04:47:09.588Z,4.30
2023-05-02T04:48:09.598Z,4.90
2023-05-02T04:49:09.504Z,5.50
2023-05-02T04:50:09.523Z,4.30
2023-05-02T04:51:09.542Z,4.10
2023-05-02T04:52:09.564Z,5.40
2023-05-02T04:53:09.676Z,4.30
2023-05-02T04:54:09.575Z,5.30
2023-05-02T04:55:09.604Z,4.10
2023-05-02T04:56:09.619Z,4.20
2023-05-02T04:57:09.621Z,3.90
2023-05-02T04:58:09.643Z,4.50
2023-05-02T04:59:09.758Z,4.90
2023-05-02T05:00:09.671Z,4.30
2023-05-02T05:01:09.717Z,5.70
2023-05-02T05:02:09.894Z,4.50
2023-05-02T05:03:09.851Z,4.00
2023-05-02T05:04:10.162Z,4.50
2023-05-02T05:05:09.797Z,4.10
2023-05-02T05:06:09.835Z,4.60
2023-05-02T05:07:09.779Z,3.90
2023-05-02T05:08:09.792Z,4.30
2023-05-02T05:09:09.810Z,4.80
2023-05-02T05:10:09.926Z,5.10
2023-05-02T05:11:09.831Z,6.60
2023-05-02T05:12:09.852Z,4.00
2023-05-02T05:13:09.864Z,4.30
2023-05-02T05:14:09.882Z,4.20
2023-05-02T05:15:10.002Z,4.10
2023-05-02T05:16:09.939Z,3.80
2023-05-02T05:17:09.933Z,4.30
2023-05-02T05:18:09.949Z,4.60
2023-05-02T05:19:09.949Z,5.60
2023-05-02T05:20:09.990Z,4.00
2023-05-02T05:21:10.086Z,4.60
2023-05-02T05:22:10.076Z,4.30
2023-05-02T05:23:10.019Z,3.90
2023-05-02T05:24:10.040Z,4.30
2023-05-02T05:25:10.045Z,4.20
2023-05-02T05:26:10.152Z,3.70
2023-05-02T05:27:10.097Z,4.00
2023-05-02T05:28:10.090Z,4.90
2023-05-02T05:29:10.102Z,3.50
2023-05-02T05:30:10.118Z,3.80
2023-05-02T05:31:10.146Z,3.90
2023-05-02T05:32:10.337Z,3.80
2023-05-02T05:33:10.215Z,3.80
2023-05-02T05:34:10.292Z,4.20
2023-05-02T05:35:10.200Z,3.60
2023-05-02T05:36:10.323Z,3.70
2023-05-02T05:37:10.331Z,4.30
2023-05-02T05:38:10.242Z,3.90
2023-05-02T05:39:10.262Z,3.80
2023-05-02T05:40:10.266Z,3.90
2023-05-02T05:41:10.275Z,4.00
2023-05-02T05:42:10.392Z,3.80
2023-05-02T05:43:10.310Z,5.00
2023-05-02T05:44:10.334Z,4.70
2023-05-02T05:45:10.347Z,3.90
2023-05-02T05:46:10.347Z,4.40
2023-05-02T05:47:10.467Z,4.10
2023-05-02T05:48:10.538Z,4.10
2023-05-02T05:49:10.407Z,3.80
2023-05-02T05:50:10.419Z,4.20
2023-05-02T05:51:10.432Z,4.30
2023-05-02T05:52:10.466Z,5.10
2023-05-02T05:53:10.459Z,5.10
2023-05-02T05:54:10.581Z,4.50
2023-05-02T05:55:10.491Z,3.50
2023-05-02T05:56:10.508Z,3.70
2023-05-02T05:57:10.521Z,3.60
2023-05-02T05:58:10.545Z,3.90
2023-05-02T05:59:10.641Z,4.80
2023-05-02T06:00:10.605Z,4.00
2023-05-02T06:01:10.591Z,4.10
2023-05-02T06:02:10.634Z,4.00
2023-05-02T06:03:10.707Z,4.00
2023-05-02T06:04:10.671Z,3.70
2023-05-02T06:05:10.843Z,3.80
2023-05-02T06:06:10.769Z,4.30
2023-05-02T06:07:10.664Z,3.70
2023-05-02T06:08:10.737Z,3.90
2023-05-02T06:09:10.691Z,4.50
2023-05-02T06:10:10.711Z,3.90
2023-05-02T06:11:10.835Z,3.60
2023-05-02T06:12:10.751Z,3.70
2023-05-02T06:13:10.758Z,4.50
2023-05-02T06:14:10.773Z,4.10
2023-05-02T06:15:10.784Z,3.60
2023-05-02T06:16:10.838Z,3.40
2023-05-02T06:17:10.924Z,3.30
2023-05-02T06:18:10.857Z,4.20
2023-05-02T06:19:10.842Z,3.40
2023-05-02T06:20:10.861Z,3.50
2023-05-02T06:21:10.867Z,4.80
2023-05-02T06:22:10.909Z,3.60
2023-05-02T06:23:11.006Z,3.40
2023-05-02T06:24:10.944Z,3.80
2023-05-02T06:25:10.925Z,3.80
2023-05-02T06:26:10.979Z,3.70
2023-05-02T06:27:10.968Z,3.80
2023-05-02T06:28:10.993Z,3.40
2023-05-02T06:29:11.109Z,3.70
2023-05-02T06:30:11.015Z,4.20
2023-05-02T06:31:11.051Z,3.10
2023-05-02T06:32:11.037Z,3.40
2023-05-02T06:33:11.087Z,3.70
2023-05-02T06:34:11.164Z,4.10
2023-05-02T06:35:11.084Z,3.40
2023-05-02T06:36:11.102Z,3.60
2023-05-02T06:37:11.115Z,3.80
2023-05-02T06:38:11.127Z,3.70
2023-05-02T06:39:11.140Z,3.60
2023-05-02T06:40:11.269Z,3.60
2023-05-02T06:41:11.159Z,3.90
2023-05-02T06:42:11.190Z,4.60
2023-05-02T06:43:11.204Z,3.60
2023-05-02T06:44:11.223Z,3.80
2023-05-02T06:45:11.316Z,4.40
2023-05-02T06:46:11.233Z,3.60
2023-05-02T06:47:11.365Z,4.00
2023-05-02T06:48:11.381Z,4.50
2023-05-02T06:49:11.278Z,5.30
2023-05-02T06:50:11.391Z,4.10
2023-05-02T06:51:11.309Z,3.50
2023-05-02T06:52:11.326Z,3.80
2023-05-02T06:53:11.342Z,3.50
2023-05-02T06:54:11.367Z,3.50
2023-05-02T06:55:11.364Z,4.20
2023-05-02T06:56:11.506Z,3.70
2023-05-02T06:57:11.401Z,3.80
2023-05-02T06:58:11.422Z,4.30
2023-05-02T06:59:11.433Z,3.90
2023-05-02T07:00:11.453Z,3.80
2023-05-02T07:01:11.556Z,3.90
2023-05-02T07:02:11.569Z,3.70
2023-05-02T07:03:11.674Z,3.70
2023-05-02T07:04:11.574Z,4.40
2023-05-02T07:05:11.517Z,4.80
2023-05-02T07:06:11.620Z,3.90
2023-05-02T07:07:11.542Z,4.00
2023-05-02T07:08:11.658Z,4.50
2023-05-02T07:09:11.580Z,4.50
2023-05-02T07:10:11.606Z,3.70
2023-05-02T07:11:11.617Z,5.10
2023-05-02T07:12:11.644Z,3.80
2023-05-02T07:13:11.635Z,4.70
2023-05-02T07:14:11.752Z,3.70
2023-05-02T07:15:11.668Z,3.90
2023-05-02T07:16:11.714Z,5.10
2023-05-02T07:17:11.729Z,4.60
2023-05-02T07:18:11.831Z,4.40
2023-05-02T07:19:11.832Z,4.20
2023-05-02T07:20:11.756Z,4.00
2023-05-02T07:21:11.778Z,4.60
2023-05-02T07:22:11.774Z,4.00
2023-05-02T07:23:11.781Z,4.20
2023-05-02T07:24:11.790Z,5.00
2023-05-02T07:25:11.915Z,3.90
2023-05-02T07:26:11.827Z,3.90
2023-05-02T07:27:11.840Z,4.10
2023-05-02T07:28:11.871Z,4.10
2023-05-02T07:29:11.875Z,4.80
2023-05-02T07:30:11.884Z,4.30
2023-05-02T07:31:12.013Z,3.60
2023-05-02T07:32:11.975Z,4.30
2023-05-02T07:33:11.982Z,4.30
2023-05-02T07:34:11.944Z,4.10
2023-05-02T07:35:11.958Z,4.70
2023-05-02T07:36:12.084Z,4.10
2023-05-02T07:37:11.991Z,4.20
2023-05-02T07:38:12.008Z,3.90
2023-05-02T07:39:12.017Z,4.30
2023-05-02T07:40:12.034Z,4.20
2023-05-02T07:41:12.150Z,4.20
2023-05-02T07:42:12.063Z,3.90
2023-05-02T07:43:12.107Z,3.60
2023-05-02T07:44:12.126Z,4.00
2023-05-02T07:45:12.112Z,4.40
2023-05-02T07:46:12.199Z,3.80
2023-05-02T07:47:12.236Z,4.50
2023-05-02T07:48:12.276Z,4.00
2023-05-02T07:49:12.166Z,5.10
2023-05-02T07:50:12.175Z,4.20
2023-05-02T07:51:12.224Z,3.80
2023-05-02T07:52:12.216Z,4.10
2023-05-02T07:53:12.328Z,3.60
2023-05-02T07:54:12.247Z,4.30
2023-05-02T07:55:12.261Z,3.70
2023-05-02T07:56:12.273Z,4.50
2023-05-02T07:57:12.295Z,3.80
2023-05-02T07:58:12.419Z,4.20
2023-05-02T07:59:12.307Z,3.90
2023-05-02T08:00:12.545Z,4.70
2023-05-02T08:01:12.349Z,4.20
2023-05-02T08:02:12.442Z,4.00
2023-05-02T08:03:12.701Z,3.90
2023-05-02T08:04:12.528Z,3.80
2023-05-02T08:05:12.500Z,4.20
2023-05-02T08:06:12.477Z,3.80
2023-05-02T08:07:12.430Z,4.30
2023-05-02T08:08:12.438Z,4.30
2023-05-02T08:09:12.559Z,4.60
2023-05-02T08:10:12.487Z,4.50
2023-05-02T08:11:12.501Z,5.50
2023-05-02T08:12:12.513Z,5.80
2023-05-02T08:13:12.545Z,4.00
2023-05-02T08:14:12.633Z,5.80
2023-05-02T08:15:12.567Z,5.00
2023-05-02T08:16:12.659Z,4.00
2023-05-02T08:17:12.596Z,4.60
2023-05-02T08:18:12.682Z,4.40
2023-05-02T08:19:12.606Z,3.90
2023-05-02T08:20:12.716Z,4.10
2023-05-02T08:21:12.644Z,3.80
2023-05-02T08:22:12.650Z,3.80
2023-05-02T08:23:12.674Z,3.70
2023-05-02T08:24:12.675Z,4.20
2023-05-02T08:25:12.693Z,4.50
2023-05-02T08:26:12.829Z,4.30
2023-05-02T08:27:12.730Z,3.90
2023-05-02T08:28:12.736Z,4.10
2023-05-02T08:29:12.751Z,3.90
2023-05-02T08:30:12.775Z,4.10
2023-05-02T08:31:12.816Z,4.10
2023-05-02T08:32:12.929Z,3.90
2023-05-02T08:33:12.861Z,3.50
2023-05-02T08:34:12.840Z,4.60
2023-05-02T08:35:12.838Z,3.80
2023-05-02T08:36:12.870Z,3.70
2023-05-02T08:37:12.871Z,4.00
2023-05-02T08:38:12.980Z,3.90
2023-05-02T08:39:12.899Z,4.00
2023-05-02T08:40:12.910Z,4.10
2023-05-02T08:41:12.921Z,3.90
2023-05-02T08:42:12.941Z,4.00
2023-05-02T08:43:12.977Z,4.10
2023-05-02T08:44:13.067Z,3.70
2023-05-02T08:45:14.095Z,4.70
2023-05-02T08:46:13.047Z,4.00
2023-05-02T08:47:13.040Z,4.10
2023-05-02T08:48:13.117Z,4.40
2023-05-02T08:49:13.041Z,4.00
2023-05-02T08:50:13.157Z,4.30
2023-05-02T08:51:13.072Z,3.80
2023-05-02T08:52:13.088Z,4.10
2023-05-02T08:53:13.109Z,4.10
2023-05-02T08:54:13.115Z,4.30
2023-05-02T08:55:13.240Z,3.80
2023-05-02T08:56:13.156Z,5.30
2023-05-02T08:57:13.165Z,4.50
2023-05-02T08:58:15.225Z,3.60
2023-05-02T08:59:13.184Z,3.80
2023-05-02T09:00:13.221Z,4.30
2023-05-02T09:01:13.396Z,4.50
2023-05-02T09:02:13.249Z,3.70
2023-05-02T09:03:13.284Z,4.80
2023-05-02T09:04:13.318Z,4.60
2023-05-02T09:05:13.287Z,4.60
2023-05-02T09:06:13.345Z,4.50
2023-05-02T09:07:13.459Z,4.20
2023-05-02T09:08:13.313Z,4.40
2023-05-02T09:09:13.343Z,4.40
2023-05-02T09:10:13.339Z,4.10
2023-05-02T09:11:13.359Z,3.90
2023-05-02T09:12:13.375Z,3.40
2023-05-02T09:13:13.493Z,4.10
2023-05-02T09:14:13.418Z,5.30
2023-05-02T09:15:13.435Z,4.30
2023-05-02T09:16:13.486Z,4.60
2023-05-02T09:17:13.766Z,5.30
2023-05-02T09:18:13.462Z,4.00
2023-05-02T09:19:13.576Z,4.00
2023-05-02T09:20:13.526Z,4.10
2023-05-02T09:21:13.513Z,4.10
2023-05-02T09:22:13.520Z,4.70
2023-05-02T09:23:13.545Z,3.90
2023-05-02T09:24:13.650Z,5.00
2023-05-02T09:25:13.565Z,4.20
2023-05-02T09:26:13.582Z,4.50
2023-05-02T09:27:13.595Z,4.90
2023-05-02T09:28:13.607Z,3.80
2023-05-02T09:29:13.629Z,4.40
2023-05-02T09:30:13.735Z,4.10
2023-05-02T09:31:15.361Z,4.30
2023-05-02T09:32:13.785Z,4.00
2023-05-02T09:33:13.716Z,4.70
2023-05-02T09:34:13.686Z,4.40
2023-05-02T09:35:13.730Z,4.70
2023-05-02T09:36:13.845Z,4.40
2023-05-02T09:37:13.748Z,3.90
2023-05-02T09:38:13.759Z,3.90
2023-05-02T09:39:13.879Z,4.10
2023-05-02T09:40:13.787Z,5.00
2023-05-02T09:41:13.799Z,3.80
2023-05-02T09:42:13.907Z,3.70
2023-05-02T09:43:13.826Z,4.80
2023-05-02T09:44:13.847Z,4.90
2023-05-02T09:45:13.861Z,3.90
2023-05-02T09:46:14.014Z,4.90
2023-05-02T09:47:13.985Z,3.70
2023-05-02T09:48:13.907Z,4.00
2023-05-02T09:49:13.909Z,4.80
2023-05-02T09:50:13.921Z,4.90
2023-05-02T09:51:13.943Z,4.10
2023-05-02T09:52:14.011Z,4.00
2023-05-02T09:53:14.066Z,4.10
2023-05-02T09:54:13.997Z,3.80
2023-05-02T09:55:13.999Z,5.30
2023-05-02T09:56:14.013Z,3.50
2023-05-02T09:57:14.045Z,4.30
2023-05-02T09:58:14.047Z,4.00
2023-05-02T09:59:14.156Z,3.50
2023-05-02T10:00:14.089Z,3.90
2023-05-02T10:01:14.149Z,3.70
2023-05-02T10:02:14.095Z,4.40
2023-05-02T10:03:14.131Z,4.40
2023-05-02T10:04:14.336Z,4.10
2023-05-02T10:05:14.146Z,4.20
2023-05-02T10:06:14.192Z,4.90
2023-05-02T10:07:14.170Z,4.90
2023-05-02T10:08:14.215Z,3.60
2023-05-02T10:09:17.762Z,3.80
2023-05-02T10:10:14.213Z,3.70
2023-05-02T10:11:14.258Z,3.40
2023-05-02T10:12:14.247Z,3.70
2023-05-02T10:13:14.268Z,3.50
2023-05-02T10:14:14.376Z,3.70
2023-05-02T10:15:14.293Z,3.60
2023-05-02T10:16:14.398Z,3.80
2023-05-02T10:17:14.328Z,3.70
2023-05-02T10:18:14.397Z,3.60
2023-05-02T10:19:14.355Z,3.80
2023-05-02T10:20:14.470Z,3.60
2023-05-02T10:21:14.387Z,4.30
2023-05-02T10:22:14.384Z,3.80
2023-05-02T10:23:14.402Z,5.70
2023-05-02T10:24:14.441Z,4.10
2023-05-02T10:25:14.452Z,3.60
2023-05-02T10:26:14.567Z,4.40
2023-05-02T10:27:14.478Z,3.90
2023-05-02T10:28:14.483Z,3.80
2023-05-02T10:29:14.506Z,5.20
2023-05-02T10:30:14.522Z,3.80
2023-05-02T10:31:14.568Z,4.70
2023-05-02T10:32:14.629Z,4.60
2023-05-02T10:33:15.020Z,4.00
2023-05-02T10:34:14.568Z,4.90
2023-05-02T10:35:14.579Z,4.80
2023-05-02T10:36:14.593Z,4.40
2023-05-02T10:37:14.604Z,4.10
2023-05-02T10:38:14.713Z,4.40
2023-05-02T10:39:14.635Z,3.60
2023-05-02T10:40:14.680Z,4.80
2023-05-02T10:41:14.664Z,4.00
2023-05-02T10:42:14.687Z,4.00
2023-05-02T10:43:14.694Z,5.20
2023-05-02T10:44:14.802Z,3.70
2023-05-02T10:45:14.720Z,4.60
2023-05-02T10:46:14.764Z,4.70
2023-05-02T10:47:14.758Z,3.80
2023-05-02T10:48:14.775Z,3.70
2023-05-02T10:49:14.876Z,4.80
2023-05-02T10:50:14.838Z,3.70
2023-05-02T10:51:14.810Z,4.00
2023-05-02T10:52:14.815Z,3.90
2023-05-02T10:53:14.832Z,3.50
2023-05-02T10:54:14.844Z,3.40
2023-05-02T10:55:14.976Z,4.00
2023-05-02T10:56:14.895Z,4.00
2023-05-02T10:57:14.897Z,3.50
2023-05-02T10:58:14.908Z,3.90
2023-05-02T10:59:14.923Z,3.90
2023-05-02T11:00:15.040Z,3.40
2023-05-02T11:01:14.989Z,4.20
2023-05-02T11:02:14.987Z,3.50
2023-05-02T11:03:15.194Z,3.40
2023-05-02T11:04:14.994Z,3.20
2023-05-02T11:05:15.021Z,4.10
2023-05-02T11:06:15.134Z,3.80
2023-05-02T11:07:15.058Z,3.60
2023-05-02T11:08:15.052Z,3.40
2023-05-02T11:09:15.072Z,4.30
2023-05-02T11:10:15.163Z,4.80
2023-05-02T11:11:15.195Z,3.40
2023-05-02T11:12:15.137Z,4.00
2023-05-02T11:13:15.123Z,3.50
2023-05-02T11:14:15.147Z,3.40
2023-05-02T11:15:15.147Z,4.10
2023-05-02T11:16:15.289Z,3.30
2023-05-02T11:17:15.181Z,3.40
2023-05-02T11:18:15.254Z,4.00
2023-05-02T11:19:15.209Z,4.60
2023-05-02T11:20:15.226Z,4.60
2023-05-02T11:21:15.347Z,3.50
2023-05-02T11:22:15.267Z,4.10
2023-05-02T11:23:15.374Z,4.30
2023-05-02T11:24:15.300Z,5.70
2023-05-02T11:25:15.293Z,3.80
2023-05-02T11:26:15.311Z,4.40
2023-05-02T11:27:15.428Z,3.70
2023-05-02T11:28:15.370Z,3.80
2023-05-02T11:29:15.359Z,3.70
2023-05-02T11:30:15.376Z,3.70
2023-05-02T11:31:15.404Z,3.30
2023-05-02T11:32:15.477Z,3.50
2023-05-02T11:33:15.585Z,3.50
2023-05-02T11:34:15.427Z,3.70
2023-05-02T11:35:15.444Z,4.50
2023-05-02T11:36:15.452Z,4.40
2023-05-02T11:37:15.465Z,4.40
2023-05-02T11:38:15.494Z,3.90
2023-05-02T11:39:15.603Z,4.40
2023-05-02T11:40:15.513Z,4.00
2023-05-02T11:41:15.529Z,4.50
2023-05-02T11:42:15.544Z,4.40
2023-05-02T11:43:15.567Z,4.20
2023-05-02T11:44:15.592Z,3.70
2023-05-02T11:45:15.688Z,4.00
2023-05-02T11:46:15.840Z,4.30
2023-05-02T11:47:15.631Z,3.90
2023-05-02T11:48:15.681Z,5.00
2023-05-02T11:49:15.645Z,3.50
2023-05-02T11:50:15.673Z,4.40
2023-05-02T11:51:15.775Z,4.40
2023-05-02T11:52:15.690Z,5.00
2023-05-02T11:53:15.713Z,4.90
2023-05-02T11:54:15.723Z,6.30
2023-05-02T11:55:15.761Z,3.70
2023-05-02T11:56:15.761Z,4.90
2023-05-02T11:57:15.863Z,4.30
2023-05-02T11:58:15.779Z,3.90
2023-05-02T11:59:15.793Z,4.60
2023-05-02T12:00:15.834Z,4.70
2023-05-02T12:01:15.935Z,4.10
2023-05-02T12:02:15.842Z,4.80
2023-05-02T12:03:16.044Z,3.70
2023-05-02T12:04:15.873Z,3.60
2023-05-02T12:05:15.937Z,4.80
2023-05-02T12:06:16.203Z,5.50
2023-05-02T12:07:15.990Z,3.90
2023-05-02T12:08:15.927Z,4.60
2023-05-02T12:09:16.048Z,3.80
2023-05-02T12:10:15.968Z,3.60
2023-05-02T12:11:15.995Z,3.50
2023-05-02T12:12:15.982Z,3.40
2023-05-02T12:13:15.993Z,4.20
2023-05-02T12:14:16.015Z,3.50
2023-05-02T12:15:16.128Z,5.20
2023-05-02T12:16:16.184Z,5.60
2023-05-02T12:17:16.060Z,4.90
2023-05-02T12:18:16.068Z,3.70
2023-05-02T12:19:16.082Z,4.90
2023-05-02T12:20:16.091Z,4.00
2023-05-02T12:21:16.206Z,4.90
2023-05-02T12:22:16.139Z,3.60
2023-05-02T12:23:16.141Z,4.40
2023-05-02T12:24:16.155Z,3.80
2023-05-02T12:25:16.163Z,3.50
2023-05-02T12:26:16.214Z,4.30
2023-05-02T12:27:16.318Z,5.50
2023-05-02T12:28:16.219Z,3.70
2023-05-02T12:29:16.218Z,3.70
2023-05-02T12:30:16.242Z,3.40
2023-05-02T12:31:16.318Z,4.80
2023-05-02T12:32:16.290Z,3.40
2023-05-02T12:33:16.425Z,3.50
2023-05-02T12:34:16.295Z,4.10
2023-05-02T12:35:16.319Z,4.50
2023-05-02T12:36:16.334Z,3.60
2023-05-02T12:37:16.348Z,3.70
2023-05-02T12:38:16.398Z,4.00
2023-05-02T12:39:16.469Z,4.20
2023-05-02T12:40:16.389Z,3.90
2023-05-02T12:41:16.391Z,3.50
2023-05-02T12:42:16.413Z,3.80
2023-05-02T12:43:16.431Z,5.10
2023-05-02T12:44:16.450Z,4.00
2023-05-02T12:45:16.564Z,4.80
2023-05-02T12:46:16.482Z,4.20
2023-05-02T12:47:16.533Z,3.30
2023-05-02T12:48:16.547Z,4.20
2023-05-02T12:49:16.513Z,4.30
2023-05-02T12:50:16.530Z,4.40
2023-05-02T12:51:16.646Z,5.00
2023-05-02T12:52:16.560Z,4.60
2023-05-02T12:53:16.574Z,3.70
2023-05-02T12:54:16.586Z,4.00
2023-05-02T12:55:16.613Z,3.60
2023-05-02T12:56:16.607Z,3.40
2023-05-02T12:57:16.730Z,3.50
2023-05-02T12:58:16.671Z,3.70
2023-05-02T12:59:16.653Z,3.50
2023-05-02T13:00:16.676Z,3.50
2023-05-02T13:01:16.731Z,3.70
2023-05-02T13:02:16.696Z,3.80
2023-05-02T13:03:16.902Z,3.40
2023-05-02T13:04:16.934Z,4.90
2023-05-02T13:05:16.755Z,3.50
2023-05-02T13:06:16.791Z,3.90
2023-05-02T13:07:16.784Z,3.50
2023-05-02T13:08:16.780Z,3.70
2023-05-02T13:09:16.910Z,3.50
2023-05-02T13:10:16.817Z,3.50
2023-05-02T13:11:16.837Z,3.30
2023-05-02T13:12:16.907Z,3.50
2023-05-02T13:13:16.878Z,4.00
2023-05-02T13:14:16.906Z,4.10
2023-05-02T13:15:17.021Z,3.70
2023-05-02T13:16:17.004Z,3.30
2023-05-02T13:17:16.958Z,3.60
2023-05-02T13:18:17.085Z,3.80